Time;durP1;ratioP1;P1;durP2;ratioP2;P2;SDS_P1;SDS_P2;PMS_P1;PMS_P2;Temp;Humidity;BMP_temperature;BMP_pressure;BME280_temperature;BME280_humidity;BME280_pressure;Samples;Min_cycle;Max_cycle;Signal;HPM_P1;HPM_P2
2022/03/04 00:02:16;;;;;;;26.80;13.30;;;;;;;23.37;13.51;98194.22;5078312;28;20493;-82
2022/03/04 00:04:43;;;;;;;25.00;12.73;;;;;;;23.44;13.63;98193.28;5083573;28;20036;-82
2022/03/04 00:07:09;;;;;;;30.80;15.95;;;;;;;23.16;13.96;98197.34;5081267;28;20055;-81
2022/03/04 00:09:35;;;;;;;35.78;18.23;;;;;;;23.03;14.10;98197.16;5085641;28;20034;-82
2022/03/04 00:12:03;;;;;;;27.95;14.48;;;;;;;23.03;14.26;98201.97;5083574;28;20489;-82
2022/03/04 00:14:30;;;;;;;35.05;15.15;;;;;;;22.82;14.11;98193.88;5080533;28;20021;-81
2022/03/04 00:16:56;;;;;;;34.97;16.23;;;;;;;22.80;14.21;98187.94;5082416;28;20378;-82
2022/03/04 00:19:23;;;;;;;28.60;14.80;;;;;;;23.10;13.99;98193.44;5081364;28;20028;-82
2022/03/04 00:21:51;;;;;;;28.08;13.77;;;;;;;22.77;14.31;98192.34;5082297;28;20409;-82
2022/03/04 00:24:22;;;;;;;29.98;14.63;;;;;;;22.94;14.06;98188.47;5091740;28;20031;-82
2022/03/04 00:26:49;;;;;;;29.92;15.20;;;;;;;22.64;14.23;98185.72;5084597;28;20040;-82
2022/03/04 00:29:15;;;;;;;28.83;14.38;;;;;;;22.88;14.17;98186.59;5086024;28;20031;-82
2022/03/04 00:31:42;;;;;;;25.67;13.27;;;;;;;22.81;14.13;98189.50;5081516;28;20046;-82
2022/03/04 00:34:09;;;;;;;24.40;12.40;;;;;;;22.59;14.39;98189.00;5084096;28;20050;-82
2022/03/04 00:36:39;;;;;;;29.58;13.68;;;;;;;22.90;14.05;98181.34;5070279;28;20392;-82
2022/03/04 00:39:11;;;;;;;29.60;14.30;;;;;;;23.17;13.72;98182.13;5088799;28;20134;-82
2022/03/04 00:41:37;;;;;;;27.48;12.98;;;;;;;22.97;13.98;98182.03;5086521;28;20036;-82
2022/03/04 00:44:04;;;;;;;29.05;14.25;;;;;;;22.20;14.58;98178.31;5084136;28;20094;-82
2022/03/04 00:46:30;;;;;;;27.75;13.55;;;;;;;21.93;14.85;98188.66;5081252;28;20028;-82
2022/03/04 00:48:57;;;;;;;27.75;13.65;;;;;;;22.17;14.74;98181.19;5082394;28;20032;-82
2022/03/04 00:51:23;;;;;;;37.80;17.73;;;;;;;19.94;16.46;98176.53;5080436;28;20043;-81
2022/03/04 00:53:49;;;;;;;26.65;12.95;;;;;;;21.31;15.44;98184.06;5087399;28;20489;-83
2022/03/04 00:56:15;;;;;;;23.95;12.20;;;;;;;21.72;15.26;98177.66;5083411;28;20444;-82
2022/03/04 00:58:42;;;;;;;27.33;13.85;;;;;;;22.41;14.55;98171.66;5080245;28;20060;-82
2022/03/04 01:01:09;;;;;;;25.17;12.52;;;;;;;22.74;14.08;98173.59;5061139;28;20039;-82
2022/03/04 01:03:35;;;;;;;30.60;15.73;;;;;;;23.11;13.69;98179.00;5081786;28;20044;-82
2022/03/04 01:06:03;;;;;;;26.40;13.68;;;;;;;23.03;13.95;98179.56;5083390;28;20024;-82
2022/03/04 01:08:29;;;;;;;31.48;13.82;;;;;;;22.91;13.89;98171.75;5081720;28;20558;-83
2022/03/04 01:10:55;;;;;;;26.13;12.77;;;;;;;23.08;13.90;98187.47;5090175;28;20062;-82
2022/03/04 01:13:22;;;;;;;25.10;13.13;;;;;;;23.28;13.61;98174.31;5091336;28;20553;-82
2022/03/04 01:15:49;;;;;;;30.95;15.55;;;;;;;23.31;13.48;98173.50;5086603;28;20028;-82
2022/03/04 01:18:15;;;;;;;27.48;13.63;;;;;;;23.10;13.93;98174.63;5087964;28;20397;-82
2022/03/04 01:20:42;;;;;;;24.73;13.00;;;;;;;22.40;14.05;98175.66;5088002;28;20042;-82
2022/03/04 01:23:08;;;;;;;30.40;14.50;;;;;;;23.00;13.81;98172.78;5064940;28;20028;-82
2022/03/04 01:25:35;;;;;;;31.23;14.45;;;;;;;23.46;13.61;98172.03;5090833;28;20093;-82
2022/03/04 01:28:02;;;;;;;28.42;14.95;;;;;;;23.80;13.39;98167.00;5085886;28;20061;-82
2022/03/04 01:30:28;;;;;;;26.63;13.40;;;;;;;24.13;12.98;98165.16;5083710;28;20044;-82
2022/03/04 01:32:54;;;;;;;28.70;14.60;;;;;;;24.40;12.78;98167.78;5087900;28;20036;-82
2022/03/04 01:35:20;;;;;;;27.50;14.55;;;;;;;24.48;12.73;98163.63;5087402;28;20044;-82
2022/03/04 01:37:47;;;;;;;30.73;13.75;;;;;;;24.24;12.88;98164.94;5080522;28;20028;-82
2022/03/04 01:40:14;;;;;;;28.30;12.85;;;;;;;24.01;12.98;98174.19;5087879;28;21490;-82
2022/03/04 01:42:41;;;;;;;25.48;14.05;;;;;;;23.99;13.06;98174.59;5070511;28;20027;-82
2022/03/04 01:45:09;;;;;;;28.65;14.38;;;;;;;24.22;12.85;98165.38;5084747;28;20036;-82
2022/03/04 01:47:39;;;;;;;31.65;14.95;;;;;;;23.98;13.07;98161.81;5083844;28;20497;-82
2022/03/04 01:50:06;;;;;;;32.53;15.33;;;;;;;23.85;13.29;98169.28;5069333;28;20032;-82
2022/03/04 01:52:32;;;;;;;27.80;14.95;;;;;;;23.64;13.36;98163.31;5086799;28;20326;-82
2022/03/04 01:54:58;;;;;;;31.17;15.93;;;;;;;23.76;13.40;98165.47;5085447;28;20058;-82
2022/03/04 01:57:24;;;;;;;32.38;15.93;;;;;;;23.23;13.67;98163.59;5083721;28;20252;-82
2022/03/04 01:59:50;;;;;;;36.30;16.95;;;;;;;23.08;14.06;98160.25;5085390;28;20493;-82
2022/03/04 02:02:17;;;;;;;29.58;15.32;;;;;;;23.34;13.80;98156.63;5085931;28;20039;-82
2022/03/04 02:04:43;;;;;;;30.33;14.52;;;;;;;23.74;13.48;98145.47;5088282;28;20032;-82
2022/03/04 02:07:09;;;;;;;31.13;15.48;;;;;;;23.80;13.26;98150.19;5065999;28;20397;-82
2022/03/04 02:09:36;;;;;;;37.38;16.20;;;;;;;23.94;13.12;98160.31;5086617;28;20028;-82
2022/03/04 02:12:02;;;;;;;31.00;16.67;;;;;;;23.76;13.26;98143.81;5086740;28;20063;-82
2022/03/04 02:14:28;;;;;;;32.53;15.82;;;;;;;23.96;13.22;98143.84;5082725;28;20401;-82
2022/03/04 02:16:55;;;;;;;31.98;15.23;;;;;;;24.11;13.09;98150.00;5082572;28;20064;-82
2022/03/04 02:19:22;;;;;;;29.40;14.32;;;;;;;24.19;12.97;98145.78;5081698;28;20024;-82
2022/03/04 02:21:52;;;;;;;27.25;14.02;;;;;;;24.41;12.74;98146.94;5079358;28;20028;-82
2022/03/04 02:24:19;;;;;;;32.10;15.80;;;;;;;24.01;12.92;98152.53;5079890;28;20068;-82
2022/03/04 02:26:46;;;;;;;24.67;13.50;;;;;;;23.65;13.32;98157.28;5088307;28;20130;-82
2022/03/04 02:29:12;;;;;;;27.77;14.57;;;;;;;23.60;13.34;98159.75;5087775;28;20406;-82
2022/03/04 02:31:39;;;;;;;27.00;14.05;;;;;;;23.63;13.39;98158.91;5082734;28;20036;-83
2022/03/04 02:34:05;;;;;;;31.67;15.02;;;;;;;23.22;13.52;98160.00;5083210;28;20406;-82
2022/03/04 02:36:32;;;;;;;31.58;15.00;;;;;;;23.20;13.75;98165.25;5088366;28;20493;-82
2022/03/04 02:38:58;;;;;;;36.17;16.38;;;;;;;23.08;13.76;98156.69;5085364;28;20059;-82
2022/03/04 02:41:24;;;;;;;35.45;16.45;;;;;;;23.22;13.67;98157.22;5086488;28;20036;-82
2022/03/04 02:43:50;;;;;;;32.03;16.02;;;;;;;23.27;13.77;98162.31;5087197;28;20032;-82
2022/03/04 02:46:16;;;;;;;26.00;13.68;;;;;;;23.59;13.28;98161.81;5092536;28;20036;-82
2022/03/04 02:48:42;;;;;;;31.35;14.77;;;;;;;23.54;13.53;98159.47;5086544;28;20036;-82
2022/03/04 02:51:09;;;;;;;29.35;14.57;;;;;;;23.41;13.52;98160.53;5082690;28;20028;-82
2022/03/04 02:53:35;;;;;;;35.45;16.60;;;;;;;23.38;13.55;98162.19;5073005;28;20093;-82
2022/03/04 02:56:01;;;;;;;33.17;16.02;;;;;;;23.16;13.86;98160.94;5088025;28;20485;-82
2022/03/04 02:58:27;;;;;;;34.72;14.75;;;;;;;23.32;13.53;98161.84;5088883;28;20035;-82
2022/03/04 03:00:54;;;;;;;34.55;14.23;;;;;;;23.70;13.37;98153.97;5086034;28;20028;-82
2022/03/04 03:03:20;;;;;;;27.55;13.75;;;;;;;24.10;13.13;98151.19;5089149;28;20028;-82
2022/03/04 03:05:46;;;;;;;35.40;15.75;;;;;;;24.43;12.88;98164.13;5081799;28;20081;-82
2022/03/04 03:08:12;;;;;;;33.35;15.18;;;;;;;24.49;12.87;98153.94;5087848;28;20480;-82
2022/03/04 03:10:39;;;;;;;37.20;16.90;;;;;;;24.62;12.79;98161.25;5089442;28;20092;-82
2022/03/04 03:13:05;;;;;;;36.42;17.50;;;;;;;24.38;12.92;98165.44;5086632;28;20020;-82
2022/03/04 03:15:31;;;;;;;32.92;15.73;;;;;;;;;;5084317;28;20033;-82
2022/03/04 03:17:57;;;;;;;34.05;14.90;;;;;;;23.85;13.32;98174.13;5084793;28;20027;-82
2022/03/04 03:20:23;;;;;;;29.63;14.20;;;;;;;23.81;13.35;98176.19;5088093;28;20038;-82
2022/03/04 03:22:49;;;;;;;27.63;13.35;;;;;;;23.80;13.35;98172.59;5086077;28;20033;-82
2022/03/04 03:25:15;;;;;;;28.40;12.75;;;;;;;23.53;13.38;98176.72;5078139;28;20067;-82
2022/03/04 03:27:42;;;;;;;31.80;13.23;;;;;;;23.06;13.68;98175.88;5085873;28;20031;-82
2022/03/04 03:30:09;;;;;;;25.77;12.43;;;;;;;22.76;14.12;98175.97;5080361;28;20059;-82
2022/03/04 03:32:35;;;;;;;25.27;11.80;;;;;;;22.08;14.58;98184.47;5082844;28;20043;-82
2022/03/04 03:35:02;;;;;;;30.10;12.77;;;;;;;21.58;15.03;98191.78;5081829;28;20492;-82
2022/03/04 03:37:28;;;;;;;31.25;13.75;;;;;;;21.57;14.96;98191.00;5066835;28;20405;-82
2022/03/04 03:39:54;;;;;;;31.02;14.40;;;;;;;20.38;15.81;98187.09;5089926;28;20035;-82
2022/03/04 03:42:20;;;;;;;29.33;14.65;;;;;;;21.53;15.02;98192.22;5084929;28;20508;-82
2022/03/04 03:44:46;;;;;;;30.58;13.95;;;;;;;22.25;14.30;98186.25;5093031;28;20040;-82
2022/03/04 03:47:13;;;;;;;27.63;13.55;;;;;;;22.64;14.07;98192.13;5089800;28;20082;-82
2022/03/04 03:49:39;;;;;;;28.73;12.98;;;;;;;22.48;14.13;98189.13;5087618;28;20035;-82
2022/03/04 03:52:06;;;;;;;29.67;13.50;;;;;;;22.08;14.56;98194.88;5087152;28;20035;-82
2022/03/04 03:54:33;;;;;;;27.00;13.38;;;;;;;22.32;14.26;98185.34;5084634;28;20033;-82
2022/03/04 03:56:59;;;;;;;25.85;12.77;;;;;;;22.43;14.14;98189.59;5078137;28;20111;-82
2022/03/04 03:59:25;;;;;;;22.85;11.57;;;;;;;22.83;13.99;98189.84;5081883;28;20419;-82
2022/03/04 04:01:51;;;;;;;29.20;14.93;;;;;;;23.11;13.69;98193.00;5085525;28;20028;-82
2022/03/04 04:04:17;;;;;;;29.20;13.68;;;;;;;23.04;13.59;98183.94;5088663;28;20396;-82
2022/03/04 04:06:44;;;;;;;26.92;13.18;;;;;;;22.57;13.86;98192.19;5085456;28;20267;-82
2022/03/04 04:09:10;;;;;;;26.10;12.55;;;;;;;22.51;14.04;98185.50;5088394;28;20032;-82
2022/03/04 04:11:38;;;;;;;26.63;12.98;;;;;;;21.84;14.47;98202.31;5081021;28;20045;-82
2022/03/04 04:14:09;;;;;;;30.70;13.75;;;;;;;21.92;14.57;98196.22;5082023;28;20032;-82
2022/03/04 04:16:35;;;;;;;;;;;;;;;22.22;14.35;98183.50;5086105;28;20093;-82
2022/03/04 04:19:01;;;;;;;21.70;10.90;;;;;;;22.56;13.95;98196.22;5087248;28;19912;-82
2022/03/04 04:21:28;;;;;;;24.75;12.27;;;;;;;22.71;13.79;98191.22;5085114;28;20390;-82
2022/03/04 04:23:55;;;;;;;24.35;12.05;;;;;;;22.79;13.88;98198.31;5065897;28;20036;-82
2022/03/04 04:26:22;;;;;;;23.75;12.10;;;;;;;22.89;13.81;98197.38;5080288;28;20043;-82
2022/03/04 04:28:50;;;;;;;22.92;12.23;;;;;;;22.75;13.79;98203.19;5084583;28;20023;-82
2022/03/04 04:31:17;;;;;;;22.58;11.30;;;;;;;22.44;14.08;98198.78;5086573;28;20036;-82
2022/03/04 04:33:43;;;;;;;28.02;14.05;;;;;;;22.07;14.35;98196.88;5086350;28;20044;-82
2022/03/04 04:36:09;;;;;;;20.23;10.52;;;;;;;21.93;14.70;98208.22;5083546;28;20060;-82
2022/03/04 04:38:35;;;;;;;25.52;12.68;;;;;;;21.80;14.70;98215.50;5081136;28;20489;-82
2022/03/04 04:41:02;;;;;;;21.90;11.25;;;;;;;21.21;15.09;98207.28;5067926;28;20580;-82
2022/03/04 04:43:28;;;;;;;23.95;12.57;;;;;;;21.86;14.79;98208.28;5084295;28;20494;-82
2022/03/04 04:45:54;;;;;;;28.50;13.60;;;;;;;22.12;14.66;98207.59;5084277;28;20112;-82
2022/03/04 04:48:20;;;;;;;24.45;9.70;;;;;;;21.68;14.61;98214.03;5092597;28;20028;-82
2022/03/04 04:50:46;;;;;;;30.95;14.50;;;;;;;21.85;14.65;98207.50;5087948;28;20024;-82
2022/03/04 04:53:12;;;;;;;25.23;11.90;;;;;;;21.77;14.87;98210.75;5089126;28;20152;-82
2022/03/04 04:55:38;;;;;;;22.85;11.48;;;;;;;22.13;14.58;98209.16;5087668;28;20543;-83
2022/03/04 04:58:05;;;;;;;22.67;11.38;;;;;;;21.99;14.75;98212.13;5084099;28;20039;-83
2022/03/04 05:00:31;;;;;;;24.98;11.48;;;;;;;21.81;14.85;98211.50;5087919;28;20382;-82
2022/03/04 05:02:57;;;;;;;26.30;12.02;;;;;;;21.78;14.87;98212.31;5074125;28;20027;-82
2022/03/04 05:05:23;;;;;;;23.45;13.75;;;;;;;21.49;15.16;98216.63;5073548;28;20027;-82
2022/03/04 05:07:50;;;;;;;27.85;13.77;;;;;;;20.88;15.64;98215.50;5090497;28;20107;-82
2022/03/04 05:10:16;;;;;;;20.13;10.77;;;;;;;20.72;15.81;98218.78;5084279;28;20040;-83
2022/03/04 05:12:42;;;;;;;26.02;12.30;;;;;;;20.91;15.72;98218.25;5085725;28;20040;-82
2022/03/04 05:15:08;;;;;;;34.03;15.15;;;;;;;21.08;15.44;98222.16;5085175;28;20722;-83
2022/03/04 05:17:35;;;;;;;22.90;11.65;;;;;;;21.54;15.21;98228.13;5084476;28;20084;-82
2022/03/04 05:20:01;;;;;;;28.80;12.38;;;;;;;21.80;14.90;98233.06;5082586;28;20043;-82
2022/03/04 05:22:27;;;;;;;26.02;12.05;;;;;;;21.41;15.15;98229.84;5086879;28;20770;-82
2022/03/04 05:24:53;;;;;;;25.60;12.48;;;;;;;22.11;14.66;98230.38;5088409;28;20040;-83
2022/03/04 05:27:19;;;;;;;18.80;9.82;;;;;;;22.08;14.59;98225.63;5088653;28;20040;-82
2022/03/04 05:29:45;;;;;;;23.42;12.13;;;;;;;21.53;15.10;98225.75;5083759;28;20020;-82
2022/03/04 05:32:12;;;;;;;20.88;10.30;;;;;;;21.85;14.89;98234.66;5084158;28;20036;-82
2022/03/04 05:34:38;;;;;;;26.90;12.60;;;;;;;21.89;14.84;98227.03;5087525;28;20032;-82
2022/03/04 05:37:05;;;;;;;26.23;14.27;;;;;;;21.38;15.41;98238.28;5088993;28;20032;-82
2022/03/04 05:39:31;;;;;;;22.98;10.50;;;;;;;21.71;15.02;98234.75;5090211;28;20025;-82
2022/03/04 05:41:57;;;;;;;24.65;10.80;;;;;;;22.17;14.70;98245.50;5086557;28;20507;-83
2022/03/04 05:44:23;;;;;;;23.65;11.98;;;;;;;22.05;14.66;98241.22;5084143;28;20111;-81
2022/03/04 05:46:49;;;;;;;21.27;10.90;;;;;;;22.23;14.61;98244.63;5090396;28;20060;-82
2022/03/04 05:49:15;;;;;;;20.40;10.95;;;;;;;21.80;14.89;98246.25;5083524;28;20075;-82
2022/03/04 05:51:41;;;;;;;21.73;10.90;;;;;;;22.09;14.84;98244.78;5081061;28;20374;-82
2022/03/04 05:54:07;;;;;;;18.73;9.82;;;;;;;22.39;14.57;98249.59;5079685;28;20052;-83
2022/03/04 05:56:33;;;;;;;20.77;11.30;;;;;;;22.65;14.36;98255.31;5088455;28;20040;-83
2022/03/04 05:59:00;;;;;;;24.77;11.63;;;;;;;22.67;14.43;98247.28;5087390;28;20036;-82
2022/03/04 06:01:26;;;;;;;24.15;10.43;;;;;;;22.75;14.46;98253.56;5082505;28;20084;-83
2022/03/04 06:03:52;;;;;;;23.63;10.93;;;;;;;22.36;14.60;98248.44;5081819;28;20481;-82
2022/03/04 06:06:20;;;;;;;21.67;12.10;;;;;;;22.17;14.90;98251.09;5085455;28;20106;-82
2022/03/04 06:08:46;;;;;;;21.83;11.23;;;;;;;21.67;15.50;98254.38;5087243;28;20032;-81
2022/03/04 06:11:13;;;;;;;24.55;11.25;;;;;;;22.01;15.23;98258.03;5086896;28;20036;-81
2022/03/04 06:13:40;;;;;;;45.90;18.63;;;;;;;22.37;14.90;98264.03;5086626;28;20066;-82
2022/03/04 06:16:07;;;;;;;24.42;10.70;;;;;;;21.99;15.08;98265.25;5083946;28;20029;-82
2022/03/04 06:18:33;;;;;;;27.90;13.13;;;;;;;22.31;15.14;98268.47;5082220;28;20028;-82
2022/03/04 06:21:00;;;;;;;19.52;10.18;;;;;;;21.99;15.13;98273.63;5083858;28;20054;-82
2022/03/04 06:23:26;;;;;;;23.00;11.70;;;;;;;22.23;15.13;98272.59;5089936;28;20402;-81
2022/03/04 06:25:52;;;;;;;28.92;13.68;;;;;;;22.22;15.29;98276.56;5077437;28;20036;-81
2022/03/04 06:28:18;;;;;;;27.88;15.52;;;;;;;21.84;15.60;98286.19;5086654;28;20497;-81
2022/03/04 06:30:44;;;;;;;27.20;13.05;;;;;;;21.81;15.61;98284.97;5086819;28;20034;-81
2022/03/04 06:35:55;;;;;;;25.60;14.10;;;;;;;22.29;15.36;98298.06;5078654;28;20114;-81
2022/03/04 06:38:21;;;;;;;29.90;13.75;;;;;;;22.77;14.88;98295.13;5068135;28;20028;-81
2022/03/04 06:40:49;;;;;;;26.42;13.32;;;;;;;22.91;14.78;98289.34;5091137;28;20032;-81
2022/03/04 06:43:16;;;;;;;24.13;12.50;;;;;;;22.82;14.76;98292.66;5082269;28;20028;-81
2022/03/04 06:45:44;;;;;;;23.38;11.65;;;;;;;22.72;14.91;98296.41;5081102;28;20116;-81
2022/03/04 06:48:11;;;;;;;26.30;12.50;;;;;;;22.75;14.98;98300.38;5079582;28;20475;-81
2022/03/04 06:50:37;;;;;;;20.02;11.55;;;;;;;22.14;15.56;98291.88;5079647;28;20039;-81
2022/03/04 06:53:04;;;;;;;25.20;12.93;;;;;;;21.49;16.30;98301.22;5083015;28;20044;-81
2022/03/04 06:55:31;;;;;;;24.85;12.98;;;;;;;22.03;15.75;98302.38;5081127;28;20029;-82
2022/03/04 06:57:57;;;;;;;22.50;11.95;;;;;;;21.53;16.23;98299.19;5088771;28;20436;-81
2022/03/04 07:00:27;;;;;;;26.90;12.45;;;;;;;21.99;15.96;98309.97;5087128;28;20140;-81
2022/03/04 07:02:53;;;;;;;28.75;14.55;;;;;;;21.85;16.36;98294.16;5084700;28;20035;-81
2022/03/04 07:05:22;;;;;;;27.48;14.95;;;;;;;22.22;16.01;98298.94;5077834;28;20402;-81
2022/03/04 07:07:49;;;;;;;29.65;14.05;;;;;;;21.84;16.22;98302.94;5077887;28;20385;-81
2022/03/04 07:10:16;;;;;;;25.20;13.88;;;;;;;21.86;16.30;98306.13;5079666;28;20158;-81
2022/03/04 07:12:43;;;;;;;28.05;15.13;;;;;;;22.19;16.13;98311.00;5081953;28;20059;-81
2022/03/04 07:15:09;;;;;;;34.22;16.83;;;;;;;22.24;16.16;98301.34;5086316;28;20082;-81
2022/03/04 07:17:36;;;;;;;29.92;14.88;;;;;;;22.26;15.96;98308.13;5080509;28;20090;-81
2022/03/04 07:20:03;;;;;;;29.50;14.30;;;;;;;21.31;17.04;98300.56;5081500;28;20039;-82
2022/03/04 07:22:29;;;;;;;26.55;14.40;;;;;;;20.87;17.43;98311.56;5078382;28;20497;-82
2022/03/04 07:24:55;;;;;;;32.10;15.88;;;;;;;20.57;17.98;98303.75;5077763;28;20043;-82
2022/03/04 07:27:22;;;;;;;28.70;13.88;;;;;;;20.65;17.89;98310.91;5083722;28;20374;-81
2022/03/04 07:29:48;;;;;;;29.55;13.73;;;;;;;20.84;17.83;98304.81;5081462;28;20040;-81
2022/03/04 07:32:14;;;;;;;26.50;13.25;;;;;;;21.10;17.38;98309.88;5083109;28;20148;-81
2022/03/04 07:34:40;;;;;;;27.95;13.90;;;;;;;20.77;17.75;98312.44;5082377;28;20031;-82
2022/03/04 07:37:06;;;;;;;28.50;12.43;;;;;;;20.87;17.59;98320.75;5077092;28;20516;-82
2022/03/04 07:39:32;;;;;;;28.98;14.15;;;;;;;20.88;17.86;98313.97;5083479;28;20058;-82
2022/03/04 07:42:01;;;;;;;29.42;14.43;;;;;;;20.77;18.11;98309.66;5077462;28;20059;-81
2022/03/04 07:44:27;;;;;;;28.42;13.63;;;;;;;20.99;17.92;98306.31;5077365;28;20409;-82
2022/03/04 07:46:54;;;;;;;25.73;12.50;;;;;;;21.13;17.50;98313.84;5090036;28;20112;-82
2022/03/04 07:49:20;;;;;;;25.98;12.57;;;;;;;21.27;17.34;98319.34;5068198;28;20066;-82
2022/03/04 07:51:47;;;;;;;27.60;14.70;;;;;;;21.75;17.00;98320.16;5078378;28;20107;-82
2022/03/04 07:54:13;;;;;;;20.73;10.90;;;;;;;21.67;17.13;98321.44;5085083;28;20037;-82
2022/03/04 07:56:40;;;;;;;23.70;12.68;;;;;;;22.10;16.76;98321.84;5077577;28;20040;-82
2022/03/04 07:59:07;;;;;;;27.08;13.85;;;;;;;21.67;16.97;98327.03;5081170;28;20427;-81
2022/03/04 08:01:33;;;;;;;24.33;13.73;;;;;;;21.89;16.82;98319.28;5080322;28;20115;-82
2022/03/04 08:03:59;;;;;;;25.70;13.30;;;;;;;21.91;16.82;98325.25;5061865;28;20039;-82
2022/03/04 08:06:25;;;;;;;28.90;14.52;;;;;;;22.11;16.69;98320.66;5082443;28;20078;-82
2022/03/04 08:08:51;;;;;;;27.80;14.02;;;;;;;23.04;16.20;98327.56;5085211;28;20081;-82
2022/03/04 08:11:17;;;;;;;27.70;14.85;;;;;;;22.84;15.95;98323.84;5081698;28;20078;-82
2022/03/04 08:13:44;;;;;;;28.50;14.02;;;;;;;22.77;16.00;98328.72;5064216;28;20039;-82
2022/03/04 08:16:10;;;;;;;33.63;15.50;;;;;;;23.01;15.97;98331.19;5062357;28;20078;-81
2022/03/04 08:18:36;;;;;;;33.60;16.13;;;;;;;23.02;16.03;98334.78;5077676;28;20025;-82
2022/03/04 08:21:03;;;;;;;27.35;13.43;;;;;;;22.71;16.29;98341.59;5081494;28;20104;-81
2022/03/04 08:23:29;;;;;;;26.67;13.27;;;;;;;22.99;16.33;98344.81;5085436;28;20036;-82
2022/03/04 08:25:57;;;;;;;35.40;16.55;;;;;;;23.43;16.00;98337.44;5063334;28;20397;-81
2022/03/04 08:28:23;;;;;;;30.95;15.23;;;;;;;23.53;15.71;98336.47;5089744;28;20478;-82
2022/03/04 08:30:49;;;;;;;38.60;17.48;;;;;;;23.03;15.94;98341.97;5065303;28;20089;-82
2022/03/04 08:33:16;;;;;;;31.27;15.77;;;;;;;23.34;15.97;98333.16;5082386;28;20040;-82
2022/03/04 08:35:42;;;;;;;35.20;17.42;;;;;;;23.24;16.19;98334.06;5078339;28;20077;-82
2022/03/04 08:38:08;;;;;;;31.23;16.10;;;;;;;22.98;16.38;98342.44;5085557;28;20024;-82
2022/03/04 08:40:34;;;;;;;39.65;20.73;;;;;;;22.89;16.21;98351.38;5082003;28;20036;-82
2022/03/04 08:43:00;;;;;;;33.30;16.52;;;;;;;22.76;16.68;98344.72;5067779;28;20028;-82
2022/03/04 08:45:27;;;;;;;32.25;15.88;;;;;;;21.95;17.15;98351.97;5077165;28;20033;-81
2022/03/04 08:47:53;;;;;;;37.33;18.75;;;;;;;22.59;17.04;98340.88;5082355;28;20035;-82
2022/03/04 08:50:21;;;;;;;33.17;17.50;;;;;;;22.59;16.92;98345.72;5067595;28;20469;-82
2022/03/04 08:52:48;;;;;;;35.65;18.38;;;;;;;22.20;17.22;98340.53;5079894;28;20029;-82
2022/03/04 08:55:15;;;;;;;39.85;18.70;;;;;;;22.51;17.11;98352.59;5080885;28;20037;-82
2022/03/04 08:57:45;;;;;;;33.33;17.35;;;;;;;23.13;16.58;98349.44;5087272;28;20028;-82
2022/03/04 09:00:13;;;;;;;;;;;;;;;23.06;16.87;98350.31;5063846;28;20029;-82
2022/03/04 09:02:39;;;;;;;43.05;21.60;;;;;;;23.38;16.53;98347.88;5084722;28;20041;-82
2022/03/04 09:05:06;;;;;;;37.60;18.85;;;;;;;23.64;16.26;98339.91;5062719;28;20028;-82
2022/03/04 09:07:32;;;;;;;38.08;17.45;;;;;;;23.48;16.21;98340.53;5064961;28;20047;-82
2022/03/04 09:09:59;;;;;;;32.47;17.50;;;;;;;23.51;16.21;98350.13;5079872;28;20021;-82
2022/03/04 09:12:25;;;;;;;29.88;15.35;;;;;;;23.38;16.53;98353.50;5063997;28;20035;-82
2022/03/04 09:14:51;;;;;;;39.72;18.48;;;;;;;24.16;15.98;98359.88;5071235;28;20020;-82
2022/03/04 09:17:17;;;;;;;40.05;18.02;;;;;;;24.74;15.57;98348.72;5082134;28;20383;-82
2022/03/04 09:19:44;;;;;;;35.70;16.50;;;;;;;25.27;14.88;98356.06;5061554;28;20024;-82
2022/03/04 09:22:10;;;;;;;30.17;14.65;;;;;;;24.76;14.78;98353.97;5082718;28;20032;-81
2022/03/04 09:24:36;;;;;;;30.33;16.10;;;;;;;23.72;15.64;98364.59;5080346;28;20084;-81
2022/03/04 09:27:02;;;;;;;42.35;19.65;;;;;;;24.20;16.00;98364.19;5083829;28;20115;-82
2022/03/04 09:29:28;;;;;;;27.38;13.90;;;;;;;23.45;15.94;98369.44;5081454;28;20404;-82
2022/03/04 09:31:54;;;;;;;29.42;15.40;;;;;;;23.90;15.67;98364.28;5086724;28;20028;-82
2022/03/04 09:34:20;;;;;;;24.65;12.40;;;;;;;23.75;16.06;98372.16;5073082;28;20106;-82
2022/03/04 09:36:47;;;;;;;24.55;13.35;;;;;;;23.90;15.67;98364.28;5075204;28;20040;-82
2022/03/04 09:39:13;;;;;;;28.95;12.73;;;;;;;23.98;15.57;98374.19;5082500;28;20036;-81
2022/03/04 09:41:43;;;;;;;20.35;10.55;;;;;;;23.30;16.03;98376.41;5081467;28;20032;-82
2022/03/04 09:44:10;;;;;;;27.00;12.83;;;;;;;21.64;17.90;98380.94;5088148;28;20047;-82
2022/03/04 09:46:39;;;;;;;23.10;12.05;;;;;;;21.97;17.37;98382.28;5081360;28;20320;-82
2022/03/04 09:49:06;;;;;;;23.10;11.60;;;;;;;22.98;16.55;98374.06;5088418;28;20101;-81
2022/03/04 09:51:33;;;;;;;32.47;16.75;;;;;;;23.28;16.79;98379.66;5085856;28;20064;-82
2022/03/04 09:53:59;;;;;;;26.08;12.00;;;;;;;23.66;16.12;98371.91;5087312;28;20120;-82
2022/03/04 09:56:25;;;;;;;25.73;13.73;;;;;;;23.72;15.88;98372.22;5087211;28;20477;-82
2022/03/04 09:58:51;;;;;;;27.65;13.00;;;;;;;21.71;17.27;98371.69;5087876;28;20040;-82
2022/03/04 10:01:18;;;;;;;25.23;12.48;;;;;;;20.94;18.41;98375.72;5088316;28;20031;-81
2022/03/04 10:03:52;;;;;;;21.92;11.30;;;;;;;22.64;17.13;98382.44;5095930;28;20036;-82
2022/03/04 10:06:20;;;;;;;35.08;16.08;;;;;;;23.96;16.28;98373.81;5080271;28;20028;-81
2022/03/04 10:08:52;;;;;;;24.27;13.18;;;;;;;23.76;16.07;98375.75;5088982;28;20036;-82
2022/03/04 10:11:44;;;;;;;30.05;15.65;;;;;;;23.93;15.60;98369.84;5082180;28;20481;-81
2022/03/04 10:14:13;;;;;;;22.63;11.63;;;;;;;23.48;16.24;98379.00;5084759;28;20507;-82
2022/03/04 10:16:42;;;;;;;29.20;14.57;;;;;;;22.37;16.75;98380.72;5085805;28;20033;-81
2022/03/04 10:19:09;;;;;;;25.27;12.50;;;;;;;22.76;16.73;98380.31;5088359;28;20504;-82
2022/03/04 10:21:53;;;;;;;34.10;16.63;;;;;;;21.68;17.59;98378.91;5083245;28;20036;-81
2022/03/04 10:24:23;;;;;;;20.60;11.07;;;;;;;21.51;17.65;98379.84;5083446;28;20413;-82
2022/03/04 10:27:02;;;;;;;22.10;12.07;;;;;;;21.49;17.63;98376.66;5080166;28;20048;-82
2022/03/04 10:29:31;;;;;;;25.42;12.40;;;;;;;21.76;17.33;98371.25;5067750;28;20463;-82
2022/03/04 10:32:11;;;;;;;27.95;12.98;;;;;;;22.50;17.27;98376.97;5079169;28;20110;-81
2022/03/04 10:34:51;;;;;;;21.60;10.90;;;;;;;23.40;16.03;98374.72;5078400;28;20032;-82
2022/03/04 10:37:40;;;;;;;24.08;13.23;;;;;;;23.08;16.09;98381.50;5089018;28;20038;-81
2022/03/04 10:40:12;;;;;;;22.13;11.82;;;;;;;23.64;16.38;98377.13;5086501;28;20037;-81
2022/03/04 10:42:47;;;;;;;20.60;10.38;;;;;;;23.35;15.65;98378.78;5085796;28;20111;-82
2022/03/04 10:45:25;;;;;;;19.02;10.25;;;;;;;22.54;16.74;98372.13;5084752;28;20036;-82
2022/03/04 10:47:56;;;;;;;22.05;11.55;;;;;;;23.41;16.00;98373.50;5065184;28;20078;-81
2022/03/04 10:50:32;;;;;;;17.40;9.00;;;;;;;23.29;16.13;98372.81;5065651;28;20078;-82
2022/03/04 10:53:08;;;;;;;18.35;9.68;;;;;;;22.76;16.91;98369.13;5086439;28;20115;-82
2022/03/04 10:55:42;;;;;;;21.48;10.75;;;;;;;23.05;16.10;98368.34;5082182;28;20054;-82
2022/03/04 10:58:16;;;;;;;26.02;13.30;;;;;;;23.14;16.39;98373.44;5081033;28;20035;-82
2022/03/04 11:00:48;;;;;;;18.00;8.23;;;;;;;22.59;16.81;98374.47;5090433;28;20115;-82
2022/03/04 11:03:16;;;;;;;23.27;11.23;;;;;;;22.81;16.58;98375.06;5080861;28;20060;-82
2022/03/04 11:05:43;;;;;;;20.95;10.43;;;;;;;23.08;16.63;98372.34;5086647;28;20406;-82
2022/03/04 11:08:11;;;;;;;20.42;10.55;;;;;;;23.41;16.35;98359.50;5068973;28;20067;-82
2022/03/04 11:10:37;;;;;;;20.33;11.25;;;;;;;23.39;16.31;98362.69;5078357;28;20036;-81
2022/03/04 11:13:06;;;;;;;19.23;10.27;;;;;;;23.03;16.69;98376.38;5086507;28;20042;-82
2022/03/04 11:15:33;;;;;;;23.58;10.38;;;;;;;22.14;17.61;98369.38;5087863;28;20028;-82
2022/03/04 11:18:03;;;;;;;22.77;11.05;;;;;;;22.60;17.21;98372.47;5076640;28;20032;-82
2022/03/04 11:20:30;;;;;;;24.70;11.80;;;;;;;22.55;16.58;98361.72;5067564;28;20028;-82
2022/03/04 11:22:56;;;;;;;25.13;13.13;;;;;;;20.82;18.35;98374.19;5084194;28;20125;-82